Time;durP1;ratioP1;P1;durP2;ratioP2;P2;SDS_P1;SDS_P2;PMS_P1;PMS_P2;Temp;Humidity;BMP_temperature;BMP_pressure;BME280_temperature;BME280_humidity;BME280_pressure;Samples;Min_cycle;Max_cycle;Signal;HPM_P1;HPM_P2
2023/05/17 00:01:56;;;;;;;33.30;6.80;;;;;;;10.77;100.00;102505.31;5057943;28;20123;-43
2023/05/17 00:04:23;;;;;;;24.88;5.35;;;;;;;10.79;100.00;102501.59;5064466;28;20025;-45
2023/05/17 00:06:48;;;;;;;33.17;6.40;;;;;;;10.74;100.00;102505.59;5069592;28;20024;-45
2023/05/17 00:09:13;;;;;;;27.23;4.68;;;;;;;10.75;100.00;102507.28;5072657;28;20358;-44
2023/05/17 00:11:39;;;;;;;32.55;6.45;;;;;;;10.74;100.00;102510.09;5073034;28;20036;-45
2023/05/17 00:14:04;;;;;;;35.95;5.70;;;;;;;10.66;100.00;102508.13;5072381;28;20099;-41
2023/05/17 00:16:30;;;;;;;27.52;4.72;;;;;;;10.65;100.00;102522.59;5065942;28;20063;-41
2023/05/17 00:18:55;;;;;;;26.25;5.38;;;;;;;10.61;100.00;102523.88;5050463;28;20116;-42
2023/05/17 00:21:20;;;;;;;43.55;5.95;;;;;;;10.63;100.00;102529.94;5052100;28;20033;-44
2023/05/17 00:23:46;;;;;;;24.33;4.85;;;;;;;10.63;100.00;102519.19;5058316;28;20055;-43
2023/05/17 00:26:12;;;;;;;31.90;5.70;;;;;;;10.64;100.00;102515.50;5072573;28;20028;-43
2023/05/17 00:28:38;;;;;;;37.15;6.38;;;;;;;10.68;100.00;102510.69;5072127;28;20402;-45
2023/05/17 00:31:03;;;;;;;43.53;8.25;;;;;;;10.71;100.00;102511.25;5071274;28;20056;-42
2023/05/17 00:33:28;;;;;;;40.53;6.28;;;;;;;10.72;100.00;102502.19;5072353;28;20363;-42
2023/05/17 00:35:54;;;;;;;24.05;5.55;;;;;;;10.72;100.00;102501.34;5072701;28;20115;-43
2023/05/17 00:38:19;;;;;;;38.90;5.30;;;;;;;10.74;100.00;102510.97;5055296;28;20033;-43
2023/05/17 00:40:44;;;;;;;31.67;4.72;;;;;;;10.75;100.00;102518.06;5051441;28;20021;-45
2023/05/17 00:43:10;;;;;;;34.70;4.95;;;;;;;10.76;100.00;102508.97;5052556;28;20057;-43
2023/05/17 00:45:35;;;;;;;39.40;5.30;;;;;;;10.73;100.00;102503.03;5052265;28;20496;-42
2023/05/17 00:48:00;;;;;;;36.83;5.18;;;;;;;10.71;100.00;102510.41;5067129;28;20043;-42
2023/05/17 00:50:26;;;;;;;35.38;6.75;;;;;;;10.68;100.00;102516.91;5051888;28;20068;-41
2023/05/17 00:52:51;;;;;;;35.38;5.20;;;;;;;10.66;100.00;102505.44;5034498;28;20033;-41
2023/05/17 00:55:18;;;;;;;29.05;5.15;;;;;;;10.66;100.00;102508.13;5066089;28;20055;-43
2023/05/17 00:57:44;;;;;;;31.05;5.10;;;;;;;10.66;100.00;102512.66;5072000;28;20068;-42
2023/05/17 01:00:10;;;;;;;34.50;6.25;;;;;;;10.64;100.00;102507.44;5061829;28;20470;-42
2023/05/17 01:02:35;;;;;;;23.55;5.30;;;;;;;10.62;100.00;102506.72;5067384;28;20056;-47
2023/05/17 01:05:00;;;;;;;40.00;6.22;;;;;;;10.63;100.00;102511.09;5055889;28;20040;-42
2023/05/17 01:07:26;;;;;;;35.00;5.45;;;;;;;10.61;100.00;102502.34;5052635;28;20119;-46
2023/05/17 01:09:51;;;;;;;35.17;5.28;;;;;;;10.64;100.00;102499.34;5059756;28;20040;-43
2023/05/17 01:12:39;;;;;;;32.42;5.80;;;;;;;10.64;100.00;102506.59;5051531;28;20021;-45
2023/05/17 01:15:07;;;;;;;;;;;;;;;10.59;100.00;102501.63;5064543;28;20078;-46
2023/05/17 01:17:39;;;;;;;33.40;5.38;;;;;;;10.58;100.00;102504.44;5046719;28;19924;-44
2023/05/17 01:20:21;;;;;;;27.98;4.60;;;;;;;10.57;100.00;102511.69;5063254;28;20025;-47
2023/05/17 01:22:56;;;;;;;39.38;6.22;;;;;;;10.56;100.00;102512.69;5050086;28;20033;-44
2023/05/17 01:25:33;;;;;;;37.33;5.65;;;;;;;10.57;100.00;102519.75;5050198;28;20457;-43
2023/05/17 01:28:00;;;;;;;39.95;5.40;;;;;;;10.64;100.00;102514.66;5046245;28;20094;-44
2023/05/17 01:30:28;;;;;;;27.60;5.22;;;;;;;10.64;100.00;102510.13;5059121;28;20035;-47
2023/05/17 01:32:57;;;;;;;23.05;5.05;;;;;;;10.67;100.00;102509.00;5060903;28;20056;-43
2023/05/17 01:35:23;;;;;;;30.33;5.07;;;;;;;10.68;100.00;102500.75;5055816;28;20033;-42
2023/05/17 01:37:49;;;;;;;31.27;5.40;;;;;;;10.69;100.00;102507.00;5051770;28;20037;-44
2023/05/17 01:40:16;;;;;;;24.35;4.78;;;;;;;10.62;100.00;102512.09;5064690;28;20049;-43
2023/05/17 01:42:41;;;;;;;36.15;5.80;;;;;;;10.59;100.00;102516.94;5053877;28;20055;-45
2023/05/17 01:45:07;;;;;;;33.97;5.75;;;;;;;10.58;100.00;102510.66;5050766;28;20025;-43
2023/05/17 01:47:42;;;;;;;25.08;4.68;;;;;;;10.55;100.00;102516.34;5051563;28;20094;-43
2023/05/17 01:50:09;;;;;;;37.88;5.25;;;;;;;10.55;100.00;102516.34;5063633;28;20025;-42
2023/05/17 01:52:38;;;;;;;30.27;4.93;;;;;;;10.55;100.00;102516.34;5055954;28;20025;-45
2023/05/17 01:55:17;;;;;;;24.20;4.82;;;;;;;10.58;100.00;102521.44;5062268;28;20037;-44
2023/05/17 01:57:43;;;;;;;27.58;4.63;;;;;;;10.58;100.00;102515.22;5050080;28;20033;-41
2023/05/17 02:00:10;;;;;;;29.98;4.60;;;;;;;10.60;100.00;102519.47;5052260;28;20722;-48
2023/05/17 02:02:36;;;;;;;32.38;4.93;;;;;;;10.65;100.00;102522.59;5067476;28;20041;-42
2023/05/17 02:05:01;;;;;;;25.48;4.97;;;;;;;10.72;100.00;102522.88;5051519;28;20017;-42
2023/05/17 02:07:26;;;;;;;29.30;4.78;;;;;;;10.75;100.00;102523.44;5059843;28;20098;-44
2023/05/17 02:09:52;;;;;;;27.55;5.32;;;;;;;10.81;100.00;102515.78;5057533;28;20052;-42
2023/05/17 02:12:17;;;;;;;33.67;5.25;;;;;;;10.84;100.00;102518.19;5050176;28;20063;-44
2023/05/17 02:14:42;;;;;;;24.90;5.03;;;;;;;10.88;100.00;102514.25;5062612;28;20439;-45
2023/05/17 02:17:08;;;;;;;26.50;5.00;;;;;;;10.92;100.00;102521.03;5049542;28;20021;-43
2023/05/17 02:19:34;;;;;;;23.80;5.50;;;;;;;10.94;100.00;102513.66;5050855;28;20036;-45
2023/05/17 02:21:59;;;;;;;30.27;5.35;;;;;;;10.99;100.00;102514.06;5063589;28;20039;-41
2023/05/17 02:24:25;;;;;;;28.67;4.60;;;;;;;11.02;100.00;102513.78;5050715;28;20021;-43
2023/05/17 02:26:50;;;;;;;27.55;4.93;;;;;;;10.99;100.00;102520.31;5049546;28;20025;-42
2023/05/17 02:29:16;;;;;;;31.60;5.55;;;;;;;10.96;100.00;102520.59;5049038;28;20033;-45
2023/05/17 02:31:41;;;;;;;32.45;5.90;;;;;;;10.94;100.00;102527.97;5048906;28;20511;-47
2023/05/17 02:34:06;;;;;;;29.58;5.30;;;;;;;10.90;100.00;102525.69;5049580;28;20032;-43
2023/05/17 02:36:32;;;;;;;24.75;5.22;;;;;;;10.86;100.00;102529.69;5052142;28;20123;-42
2023/05/17 02:38:57;;;;;;;33.08;5.40;;;;;;;10.90;100.00;102531.06;5070894;28;20024;-44
2023/05/17 02:41:23;;;;;;;23.58;5.25;;;;;;;10.86;100.00;102533.22;5065447;28;20024;-42
2023/05/17 02:43:48;;;;;;;26.58;4.93;;;;;;;10.84;100.00;102537.03;5059508;28;20055;-45
2023/05/17 02:46:14;;;;;;;25.48;4.75;;;;;;;10.84;100.00;102527.13;5054433;28;20041;-43
2023/05/17 02:48:39;;;;;;;25.85;5.40;;;;;;;10.85;100.00;102536.03;5064712;28;20028;-43
2023/05/17 02:51:05;;;;;;;30.65;5.43;;;;;;;10.85;100.00;102539.63;5072043;28;20040;-46
2023/05/17 02:53:30;;;;;;;31.85;4.93;;;;;;;10.89;100.00;102542.84;5072712;28;20449;-46
2023/05/17 02:55:56;;;;;;;38.72;6.15;;;;;;;10.91;100.00;102538.19;5051486;28;20099;-45
2023/05/17 02:58:23;;;;;;;19.92;4.63;;;;;;;10.91;100.00;102539.03;5070179;28;20081;-44
2023/05/17 03:00:49;;;;;;;35.00;4.95;;;;;;;10.89;100.00;102530.25;5056272;28;20452;-42
2023/05/17 03:03:14;;;;;;;18.02;4.50;;;;;;;10.93;100.00;102530.81;5059471;28;20117;-43
2023/05/17 03:05:40;;;;;;;28.02;4.88;;;;;;;10.93;100.00;102533.50;5065463;28;20064;-46
2023/05/17 03:08:05;;;;;;;27.63;4.72;;;;;;;10.95;100.00;102534.19;5056662;28;20033;-43
2023/05/17 03:10:31;;;;;;;24.92;5.35;;;;;;;10.93;100.00;102530.81;5054149;28;20064;-44
2023/05/17 03:12:56;;;;;;;24.95;5.07;;;;;;;10.95;100.00;102539.59;5058522;28;20052;-43
2023/05/17 03:15:22;;;;;;;20.48;4.40;;;;;;;10.95;100.00;102539.59;5073059;28;20036;-43
2023/05/17 03:17:47;;;;;;;30.23;4.85;;;;;;;10.90;100.00;102544.56;5061076;28;20378;-45
2023/05/17 03:20:13;;;;;;;30.73;4.57;;;;;;;10.84;100.00;102531.66;5052105;28;20104;-42
2023/05/17 03:22:38;;;;;;;24.58;4.38;;;;;;;10.80;100.00;102532.94;5051978;28;20025;-44
2023/05/17 03:25:04;;;;;;;26.05;5.18;;;;;;;10.72;100.00;102534.50;5057896;28;20032;-41
2023/05/17 03:27:30;;;;;;;23.85;4.28;;;;;;;10.66;100.00;102526.97;5073968;28;20470;-44
2023/05/17 03:29:55;;;;;;;26.92;4.50;;;;;;;10.61;100.00;102537.34;5073457;28;20120;-42
2023/05/17 03:32:20;;;;;;;23.40;4.50;;;;;;;10.59;100.00;102528.53;5061300;28;20037;-43
2023/05/17 03:34:46;;;;;;;22.67;4.18;;;;;;;10.55;100.00;102541.41;5052617;28;20502;-44
2023/05/17 03:37:11;;;;;;;31.25;5.22;;;;;;;10.55;100.00;102537.88;5061303;28;20060;-45
2023/05/17 03:39:36;;;;;;;29.88;4.50;;;;;;;10.52;100.00;102546.25;5061692;28;20047;-42
2023/05/17 03:42:02;;;;;;;25.45;4.30;;;;;;;10.52;100.00;102548.94;5052996;28;20040;-41
2023/05/17 03:44:27;;;;;;;24.67;4.45;;;;;;;10.56;100.00;102555.75;5053290;28;20165;-41
2023/05/17 03:46:53;;;;;;;26.25;5.68;;;;;;;10.60;100.00;102550.94;5057609;28;20028;-45
2023/05/17 03:49:18;;;;;;;15.90;4.07;;;;;;;10.64;100.00;102555.06;5054761;28;20115;-45
2023/05/17 03:51:44;;;;;;;22.35;4.55;;;;;;;10.62;100.00;102549.81;5069493;28;20047;-41
2023/05/17 03:54:10;;;;;;;39.63;4.70;;;;;;;10.67;100.00;102552.06;5056353;28;20035;-42
2023/05/17 03:56:35;;;;;;;20.42;4.20;;;;;;;10.61;100.00;102553.50;5066891;28;20051;-44
2023/05/17 03:59:00;;;;;;;29.50;4.85;;;;;;;10.61;100.00;102558.88;5051654;28;20041;-49
2023/05/17 04:01:26;;;;;;;30.65;4.28;;;;;;;10.59;100.00;102554.63;5056285;28;20076;-44
2023/05/17 04:03:51;;;;;;;28.55;3.92;;;;;;;10.58;100.00;102555.59;5068468;28;20032;-46
2023/05/17 04:06:16;;;;;;;34.67;4.38;;;;;;;10.54;100.00;102550.50;5057655;28;20040;-45
2023/05/17 04:08:43;;;;;;;27.17;4.40;;;;;;;10.60;100.00;102567.09;5051539;28;20418;-44
2023/05/17 04:11:11;;;;;;;33.10;4.25;;;;;;;10.55;100.00;102562.97;5056135;28;20036;-46
2023/05/17 04:13:36;;;;;;;24.52;4.03;;;;;;;10.49;100.00;102560.84;5063180;28;20029;-44
2023/05/17 04:16:02;;;;;;;27.00;4.07;;;;;;;10.44;100.00;102570.31;5058503;28;20047;-44
2023/05/17 04:18:28;;;;;;;25.27;3.83;;;;;;;10.40;100.00;102576.97;5069185;28;20029;-43
2023/05/17 04:20:56;;;;;;;27.77;3.40;;;;;;;10.35;100.00;102568.44;5071046;28;20343;-42
2023/05/17 04:23:21;;;;;;;19.58;2.88;;;;;;;10.38;100.00;102578.97;5064151;28;20036;-46
2023/05/17 04:25:46;;;;;;;23.88;4.30;;;;;;;10.41;100.00;102581.38;5049720;28;21782;-48
2023/05/17 04:28:12;;;;;;;28.75;3.90;;;;;;;10.42;100.00;102586.59;5070243;28;20399;-42
2023/05/17 04:30:45;;;;;;;19.10;2.83;;;;;;;10.45;100.00;102593.53;5068309;28;20041;-43
2023/05/17 04:33:10;;;;;;;35.70;3.97;;;;;;;10.48;100.00;102596.00;5061203;28;20059;-44
2023/05/17 04:35:37;;;;;;;40.33;3.95;;;;;;;10.51;100.00;102584.94;5051599;28;20040;-44
2023/05/17 04:38:02;;;;;;;27.50;3.55;;;;;;;10.55;100.00;102591.72;5053782;28;20028;-45
2023/05/17 04:40:28;;;;;;;23.13;4.25;;;;;;;10.64;100.00;102593.59;5059500;28;20119;-46
2023/05/17 04:42:53;;;;;;;19.42;2.90;;;;;;;10.66;100.00;102599.66;5051713;28;20037;-46
2023/05/17 04:45:18;;;;;;;40.72;5.75;;;;;;;10.76;100.00;102599.69;5064282;28;20045;-42
2023/05/17 04:47:44;;;;;;;19.52;3.00;;;;;;;10.81;100.00;102605.50;5068069;28;20035;-45
2023/05/17 04:50:10;;;;;;;23.05;3.35;;;;;;;10.84;100.00;102607.06;5061056;28;20120;-42
2023/05/17 04:52:37;;;;;;;25.48;3.03;;;;;;;10.87;100.00;102607.63;5049687;28;20089;-44
2023/05/17 04:55:04;;;;;;;25.55;4.00;;;;;;;10.92;100.00;102618.00;5050501;28;20044;-45
2023/05/17 04:57:29;;;;;;;30.88;4.43;;;;;;;10.97;100.00;102619.28;5055769;28;20024;-43
2023/05/17 04:59:54;;;;;;;29.75;3.60;;;;;;;11.01;100.00;102619.03;5063724;28;20396;-45
2023/05/17 05:02:20;;;;;;;28.20;3.90;;;;;;;10.99;100.00;102617.28;5071436;28;20041;-42
2023/05/17 05:04:45;;;;;;;32.50;3.60;;;;;;;11.08;100.00;102626.38;5064098;28;20068;-46
2023/05/17 05:07:11;;;;;;;27.50;3.55;;;;;;;11.16;100.00;102625.66;5068015;28;20089;-45
2023/05/17 05:09:37;;;;;;;36.75;4.65;;;;;;;11.19;100.00;102634.31;5070407;28;20111;-44
2023/05/17 05:12:03;;;;;;;33.75;4.32;;;;;;;11.32;100.00;102638.56;5069051;28;20138;-41
2023/05/17 05:14:28;;;;;;;23.58;3.08;;;;;;;11.39;100.00;102634.31;5068857;28;20110;-46
2023/05/17 05:16:54;;;;;;;31.45;3.92;;;;;;;11.54;100.00;102638.25;5055658;28;20073;-44
2023/05/17 05:19:20;;;;;;;24.35;3.05;;;;;;;11.60;100.00;102637.69;5060991;28;20037;-41
2023/05/17 05:21:45;;;;;;;23.90;3.08;;;;;;;11.66;100.00;102641.63;5055071;28;20074;-46
2023/05/17 05:24:11;;;;;;;27.88;4.80;;;;;;;11.69;100.00;102651.28;5058100;28;20028;-42
2023/05/17 05:26:36;;;;;;;26.92;3.20;;;;;;;11.58;100.00;102644.22;5035877;28;20250;-41
2023/05/17 05:29:02;;;;;;;23.95;3.45;;;;;;;11.73;100.00;102647.31;5051073;28;20036;-46
2023/05/17 05:31:27;;;;;;;23.33;3.35;;;;;;;11.79;100.00;102641.31;5058784;28;20470;-45
2023/05/17 05:33:52;;;;;;;23.85;3.28;;;;;;;11.86;100.00;102647.88;5056488;28;20499;-44
2023/05/17 05:36:18;;;;;;;30.67;3.95;;;;;;;11.92;100.00;102651.84;5050201;28;20017;-43
2023/05/17 05:38:43;;;;;;;32.53;3.05;;;;;;;11.98;100.00;102652.13;5068061;28;20042;-43
2023/05/17 05:41:08;;;;;;;28.95;3.05;;;;;;;12.13;100.00;102659.72;5068378;28;20525;-44
2023/05/17 05:43:36;;;;;;;29.52;3.10;;;;;;;12.12;100.00;102668.84;5066718;28;20054;-42
2023/05/17 05:46:01;;;;;;;27.23;2.85;;;;;;;12.13;100.00;102674.06;5055709;28;20120;-46
2023/05/17 05:48:27;;;;;;;29.65;2.88;;;;;;;12.17;100.00;102671.94;5061790;28;20075;-45
2023/05/17 05:50:52;;;;;;;25.23;2.83;;;;;;;12.22;100.00;102664.25;5059457;28;20032;-43
2023/05/17 05:53:17;;;;;;;27.05;3.65;;;;;;;12.38;100.00;102674.41;5056764;28;20041;-46
2023/05/17 05:55:43;;;;;;;29.80;3.05;;;;;;;12.43;100.00;102672.97;5058665;28;20530;-46
2023/05/17 05:58:09;;;;;;;21.98;3.45;;;;;;;12.56;100.00;102677.16;5060105;28;20033;-47
2023/05/17 06:00:35;;;;;;;29.15;3.42;;;;;;;12.78;100.00;102679.44;5055631;28;20044;-45
2023/05/17 06:03:00;;;;;;;26.25;2.78;;;;;;;12.93;100.00;102685.19;5059622;28;20442;-43
2023/05/17 06:05:26;;;;;;;20.25;2.83;;;;;;;13.12;100.00;102684.22;5058779;28;20044;-43
2023/05/17 06:07:51;;;;;;;30.63;3.38;;;;;;;13.32;100.00;102684.91;5058016;28;20052;-45
2023/05/17 06:10:16;;;;;;;27.75;2.92;;;;;;;13.59;100.00;102684.00;5057657;28;20500;-45
2023/05/17 06:12:42;;;;;;;30.13;3.28;;;;;;;14.03;100.00;102684.81;5057483;28;20514;-44
2023/05/17 06:15:08;;;;;;;29.13;3.22;;;;;;;14.94;100.00;102683.38;5057970;28;20032;-43
2023/05/17 06:17:33;;;;;;;22.40;2.92;;;;;;;15.85;100.00;102693.28;5060437;28;20033;-47
2023/05/17 06:19:58;;;;;;;25.25;3.28;;;;;;;16.54;100.00;102690.06;5060114;28;20077;-45
2023/05/17 06:22:24;;;;;;;21.13;3.40;;;;;;;17.28;98.18;102696.78;5059439;28;20521;-46
2023/05/17 06:24:49;;;;;;;22.63;3.05;;;;;;;18.02;91.36;102698.06;5062827;28;20060;-44
2023/05/17 06:27:15;;;;;;;18.95;2.35;;;;;;;17.74;90.06;102710.34;5061155;28;20024;-48
2023/05/17 06:29:40;;;;;;;18.73;2.80;;;;;;;17.21;85.25;102706.69;5072652;28;20036;-45
2023/05/17 06:32:06;;;;;;;23.00;2.85;;;;;;;17.31;85.54;102710.03;5066264;28;20107;-45
2023/05/17 06:34:31;;;;;;;15.30;2.97;;;;;;;17.88;86.03;102708.75;5069817;28;20036;-43
2023/05/17 06:36:57;;;;;;;16.90;2.50;;;;;;;18.69;82.82;102707.97;5072494;28;20021;-43
2023/05/17 06:39:23;;;;;;;26.25;3.30;;;;;;;18.84;78.08;102708.84;5063859;28;20037;-44
2023/05/17 06:41:48;;;;;;;17.25;2.85;;;;;;;19.55;75.53;102705.38;5069117;28;20371;-44
2023/05/17 06:44:13;;;;;;;14.52;2.70;;;;;;;20.06;74.64;102707.91;5059940;28;20119;-48
2023/05/17 06:46:39;;;;;;;21.38;2.95;;;;;;;20.39;69.28;102714.44;5055865;28;20032;-46
2023/05/17 06:49:05;;;;;;;17.23;2.72;;;;;;;20.65;67.10;102718.41;5052534;28;20052;-42
2023/05/17 06:51:31;;;;;;;17.67;2.75;;;;;;;20.12;70.36;102715.34;5051484;28;20032;-46
2023/05/17 06:53:56;;;;;;;19.42;2.95;;;;;;;19.42;71.31;102717.88;5065781;28;20029;-43
2023/05/17 06:56:22;;;;;;;16.95;2.85;;;;;;;18.72;73.16;102719.38;5072517;28;20557;-41
2023/05/17 06:58:47;;;;;;;23.85;3.17;;;;;;;17.69;78.13;102728.25;5073026;28;20374;-47
2023/05/17 07:01:13;;;;;;;20.73;3.10;;;;;;;17.06;82.34;102735.69;5072422;28;20482;-44
2023/05/17 07:03:38;;;;;;;25.00;3.83;;;;;;;16.21;89.02;102730.91;5072736;28;20098;-43
2023/05/17 07:06:04;;;;;;;25.42;2.97;;;;;;;15.59;92.58;102732.28;5071068;28;20347;-45
2023/05/17 07:08:29;;;;;;;22.38;3.42;;;;;;;14.90;97.61;102730.78;5071668;28;20786;-43
2023/05/17 07:10:55;;;;;;;22.30;3.72;;;;;;;14.62;100.00;102731.03;5074817;28;20036;-43
2023/05/17 07:13:20;;;;;;;19.05;3.10;;;;;;;15.73;99.07;102729.94;5083348;28;20107;-48
2023/05/17 07:15:45;;;;;;;13.98;2.60;;;;;;;17.42;90.10;102726.97;5066912;28;20037;-47
2023/05/17 07:18:11;;;;;;;19.15;2.90;;;;;;;18.73;83.43;102725.69;5056488;28;20108;-45
2023/05/17 07:20:36;;;;;;;18.13;2.78;;;;;;;18.98;79.84;102743.41;5053491;28;20524;-43
2023/05/17 07:23:02;;;;;;;16.38;3.00;;;;;;;19.40;77.62;102730.88;5072186;28;20031;-45
2023/05/17 07:25:27;;;;;;;17.50;3.28;;;;;;;20.29;74.05;102730.38;5071823;28;20045;-41
2023/05/17 07:27:52;;;;;;;15.48;2.85;;;;;;;20.71;69.26;102747.66;5072574;28;20501;-45
2023/05/17 07:30:18;;;;;;;13.75;2.47;;;;;;;19.69;72.14;102748.19;5073715;28;20078;-44
2023/05/17 07:32:43;;;;;;;12.27;2.10;;;;;;;19.70;75.48;102752.63;5060339;28;20032;-44
2023/05/17 07:35:08;;;;;;;25.02;3.15;;;;;;;18.95;73.59;102753.88;5051974;28;20044;-44
2023/05/17 07:37:34;;;;;;;18.38;2.78;;;;;;;17.59;78.70;102757.63;5055335;28;20474;-43
2023/05/17 07:40:00;;;;;;;15.00;2.53;;;;;;;16.85;87.46;102749.91;5072726;28;20123;-48
2023/05/17 07:42:25;;;;;;;15.00;2.15;;;;;;;17.66;85.08;102764.03;5072715;28;20150;-46
2023/05/17 07:44:50;;;;;;;15.68;2.53;;;;;;;17.47;84.48;102768.09;5072289;28;20127;-44
2023/05/17 07:47:16;;;;;;;16.30;2.88;;;;;;;17.55;84.18;102762.59;5061494;28;20087;-43
2023/05/17 07:49:41;;;;;;;14.95;2.53;;;;;;;18.56;81.99;102761.34;5064861;28;20021;-46
2023/05/17 07:52:07;;;;;;;15.85;2.83;;;;;;;19.49;72.76;102767.09;5058249;28;20052;-45
2023/05/17 07:54:33;;;;;;;20.48;2.40;;;;;;;19.25;72.55;102771.06;5054729;28;20067;-45
2023/05/17 07:56:58;;;;;;;17.90;2.88;;;;;;;18.86;73.76;102778.53;5052536;28;20036;-43
2023/05/17 07:59:24;;;;;;;20.98;2.60;;;;;;;18.77;71.32;102773.38;5054947;28;20508;-45
2023/05/17 08:01:50;;;;;;;13.52;2.33;;;;;;;19.25;70.34;102776.50;5067799;28;20129;-43
2023/05/17 08:04:15;;;;;;;9.48;1.75;;;;;;;19.86;65.92;102773.38;5054556;28;20103;-44
2023/05/17 08:06:44;;;;;;;12.18;2.65;;;;;;;20.71;64.49;102769.56;5069199;28;20017;-46
2023/05/17 08:09:10;;;;;;;11.75;2.30;;;;;;;21.11;60.71;102783.41;5067155;28;20041;-45
2023/05/17 08:11:35;;;;;;;12.55;1.95;;;;;;;21.55;56.13;102781.25;5071550;28;20035;-44
2023/05/17 08:14:01;;;;;;;8.50;2.00;;;;;;;21.63;58.47;102783.78;5063215;28;20056;-44
2023/05/17 08:16:26;;;;;;;8.60;2.00;;;;;;;21.99;54.51;102780.66;5052035;28;20051;-43
2023/05/17 08:18:51;;;;;;;11.82;1.92;;;;;;;22.18;54.83;102795.41;5065086;28;20492;-50
2023/05/17 08:21:17;;;;;;;10.23;2.42;;;;;;;22.72;50.39;102790.69;5070821;28;20028;-42
2023/05/17 08:23:42;;;;;;;6.95;1.83;;;;;;;23.03;50.68;102797.38;5070636;28;20592;-41
2023/05/17 08:26:08;;;;;;;12.30;1.98;;;;;;;23.16;51.74;102791.81;5057254;28;20037;-48
2023/05/17 08:28:33;;;;;;;9.95;2.05;;;;;;;23.85;47.74;102801.97;5052162;28;20028;-45
2023/05/17 08:30:59;;;;;;;8.40;1.88;;;;;;;24.32;46.33;102802.41;5052256;28;20090;-46
2023/05/17 08:33:24;;;;;;;9.90;2.10;;;;;;;24.56;46.05;102794.38;5052919;28;20129;-46
2023/05/17 08:35:51;;;;;;;9.32;2.05;;;;;;;23.80;47.39;102793.56;5058705;28;20064;-42
2023/05/17 08:38:18;;;;;;;5.75;1.30;;;;;;;23.36;46.61;102798.06;5057866;28;20684;-46
2023/05/17 08:40:43;;;;;;;7.05;1.40;;;;;;;23.97;44.08;102795.75;5054210;28;20471;-41
2023/05/17 08:43:12;;;;;;;8.10;1.45;;;;;;;23.71;41.57;102796.78;5071477;28;20032;-45
2023/05/17 08:45:38;;;;;;;6.32;1.45;;;;;;;23.68;42.41;102795.31;5072100;28;20047;-42
2023/05/17 08:48:04;;;;;;;7.50;1.67;;;;;;;23.53;43.88;102797.53;5071468;28;20394;-41
2023/05/17 08:50:30;;;;;;;10.57;1.90;;;;;;;23.82;42.37;102793.34;5070144;28;20071;-42
2023/05/17 08:52:57;;;;;;;5.38;1.77;;;;;;;23.69;42.71;102786.00;5070497;28;20429;-44
2023/05/17 08:55:24;;;;;;;9.80;1.98;;;;;;;24.55;40.48;102800.94;5059253;28;20018;-46
2023/05/17 08:57:49;;;;;;;;;;;;;;;24.35;41.21;102794.78;5072117;28;20082;-42
2023/05/17 09:00:18;;;;;;;9.68;1.80;;;;;;;24.45;40.84;102792.38;5072000;28;20346;-44
2023/05/17 09:02:44;;;;;;;12.13;2.25;;;;;;;24.58;40.96;102796.91;5071965;28;20048;-42
2023/05/17 09:05:09;;;;;;;22.80;2.03;;;;;;;24.67;39.55;102799.13;5071040;28;20116;-45
2023/05/17 09:07:35;;;;;;;35.20;1.90;;;;;;;23.84;40.46;102804.97;5072029;28;20029;-44
2023/05/17 09:10:04;;;;;;;9.43;1.67;;;;;;;23.79;42.01;102804.78;5072002;28;20039;-46
2023/05/17 09:12:33;;;;;;;10.00;1.90;;;;;;;23.46;43.54;102797.59;5072048;28;20036;-42
2023/05/17 09:15:14;;;;;;;6.63;1.70;;;;;;;23.57;42.36;102793.28;5070989;28;20040;-46
2023/05/17 09:17:41;;;;;;;9.02;1.98;;;;;;;23.63;42.40;102803.38;5070715;28;20029;-44
2023/05/17 09:20:07;;;;;;;14.25;2.10;;;;;;;23.60;42.71;102799.16;5071634;28;20024;-42
2023/05/17 09:22:34;;;;;;;9.88;2.03;;;;;;;22.77;45.24;102793.63;5069631;28;20084;-44
2023/05/17 09:25:03;;;;;;;13.32;2.30;;;;;;;23.32;42.73;102801.47;5070150;28;20032;-43
2023/05/17 09:27:30;;;;;;;16.33;2.88;;;;;;;24.03;42.00;102794.84;5070441;28;20025;-44
2023/05/17 09:29:56;;;;;;;9.85;2.03;;;;;;;24.07;41.84;102793.34;5070382;28;20446;-44
2023/05/17 09:32:23;;;;;;;9.70;2.10;;;;;;;24.21;40.40;102799.56;5071390;28;20094;-43
2023/05/17 09:34:50;;;;;;;7.55;1.52;;;;;;;24.12;39.31;102800.91;5071680;28;20070;-41
2023/05/17 09:37:16;;;;;;;8.83;1.90;;;;;;;23.77;41.10;102801.41;5071435;28;20051;-43
2023/05/17 09:39:44;;;;;;;8.18;2.22;;;;;;;23.35;42.86;102799.09;5071143;28;20017;-44
2023/05/17 09:42:13;;;;;;;10.38;1.80;;;;;;;23.22;42.07;102804.66;5069808;28;20056;-41
2023/05/17 09:44:53;;;;;;;9.77;1.55;;;;;;;23.44;40.00;102803.28;5069791;28;20048;-44
2023/05/17 09:47:22;;;;;;;7.40;1.88;;;;;;;23.42;41.84;102810.91;5070168;28;20039;-42
2023/05/17 09:49:48;;;;;;;6.72;1.58;;;;;;;23.20;40.40;102809.56;5070663;28;20040;-45
2023/05/17 09:52:17;;;;;;;10.85;1.85;;;;;;;23.23;39.89;102817.38;5073670;28;20024;-44
2023/05/17 09:54:42;;;;;;;10.55;1.83;;;;;;;22.98;40.20;102815.34;5073819;28;20451;-44
2023/05/17 09:57:09;;;;;;;7.30;1.40;;;;;;;22.75;41.22;102823.22;5073856;28;20086;-43
2023/05/17 09:59:35;;;;;;;10.95;2.03;;;;;;;23.21;40.36;102813.97;5071984;28;20124;-44
2023/05/17 10:02:01;;;;;;;6.35;1.60;;;;;;;23.56;40.17;102819.06;5060376;28;20048;-45
2023/05/17 10:04:28;;;;;;;11.70;2.10;;;;;;;23.36;42.61;102814.53;5072344;28;20025;-47
2023/05/17 10:06:55;;;;;;;;;;;;;;;22.87;42.31;102815.97;5075263;28;20112;-47
2023/05/17 10:09:21;;;;;;;13.48;1.70;;;;;;;24.00;40.49;102814.56;5063684;28;20359;-43
2023/05/17 10:11:47;;;;;;;9.85;1.73;;;;;;;23.23;41.19;102815.44;5054591;28;20025;-44
2023/05/17 10:14:22;;;;;;;21.08;2.40;;;;;;;23.23;40.30;102820.09;5071881;28;20028;-44
2023/05/17 10:16:48;;;;;;;8.20;2.17;;;;;;;23.80;38.23;102811.97;5064875;28;20075;-43
2023/05/17 10:19:14;;;;;;;10.20;2.03;;;;;;;23.65;39.64;102810.34;5054600;28;20395;-44
2023/05/17 10:21:41;;;;;;;7.75;1.58;;;;;;;23.54;39.33;102810.19;5054584;28;20025;-42
2023/05/17 10:24:07;;;;;;;14.27;1.70;;;;;;;22.85;40.53;102818.09;5069209;28;20032;-43
2023/05/17 10:26:32;;;;;;;8.60;1.73;;;;;;;23.45;39.37;102818.69;5074207;28;20032;-43
2023/05/17 10:29:00;;;;;;;8.85;1.88;;;;;;;23.30;40.03;102818.19;5074210;28;20048;-47
2023/05/17 10:31:28;;;;;;;7.18;1.80;;;;;;;22.89;42.29;102824.03;5074495;28;20039;-46
2023/05/17 10:33:55;;;;;;;8.50;1.90;;;;;;;23.84;39.64;102819.53;5073093;28;20025;-43
2023/05/17 10:36:22;;;;;;;11.82;1.70;;;;;;;23.96;40.46;102829.81;5073157;28;20024;-43
2023/05/17 10:38:50;;;;;;;9.52;1.77;;;;;;;23.45;40.46;102823.38;5072864;28;20023;-41
2023/05/17 10:41:20;;;;;;;12.45;2.45;;;;;;;23.15;40.87;102817.63;5056356;28;20485;-41
2023/05/17 10:43:46;;;;;;;12.70;2.13;;;;;;;22.74;44.25;102805.03;5056327;28;20036;-43
2023/05/17 10:46:14;;;;;;;9.30;2.03;;;;;;;23.24;41.72;102816.28;5074235;28;20425;-43
2023/05/17 10:48:40;;;;;;;9.45;1.65;;;;;;;23.04;43.97;102818.28;5072297;28;20020;-46
2023/05/17 10:51:06;;;;;;;7.45;1.83;;;;;;;23.47;42.61;102820.41;5071882;28;20642;-42
2023/05/17 10:53:31;;;;;;;8.75;1.75;;;;;;;23.12;41.64;102820.81;5074223;28;20069;-45
2023/05/17 10:55:57;;;;;;;5.78;1.52;;;;;;;22.36;41.89;102819.50;5074103;28;20327;-45
2023/05/17 10:58:25;;;;;;;5.30;1.38;;;;;;;22.35;43.73;102823.28;5073820;28;20036;-41
2023/05/17 11:00:54;;;;;;;11.13;2.22;;;;;;;22.50;43.41;102820.31;5072831;28;20032;-44
2023/05/17 11:03:24;;;;;;;15.07;1.98;;;;;;;23.09;41.92;102829.44;5072113;28;20049;-44
2023/05/17 11:06:19;;;;;;;8.40;1.88;;;;;;;22.37;44.41;102826.66;5073919;28;20020;-44
2023/05/17 11:09:05;;;;;;;7.95;1.77;;;;;;;23.10;44.18;102831.16;5073882;28;20036;-45
2023/05/17 11:11:30;;;;;;;10.63;2.00;;;;;;;23.57;42.38;102831.75;5074188;28;20051;-45